METAR Data
IDs: Format: Raw Decoded Include TAF

Data at: 1023 UTC 18 Jan 2022

K20U 181015Z AUTO 27021KT 10SM CLR 04/M02 A2952 RMK AO2
K20U 180955Z AUTO 27015G21KT 10SM CLR 04/M02 A2952 RMK AO2
K20U 180935Z AUTO 27014G21KT 10SM CLR 04/M02 A2951 RMK AO2
K20U 180915Z AUTO 27018KT 10SM CLR 05/M02 A2951 RMK AO2
K20U 180855Z AUTO 26017KT 10SM CLR 04/M02 A2950 RMK AO2
K20U 180835Z AUTO 26017G23KT 10SM FEW080 FEW095 05/M02 A2950 RMK AO2
K20U 180815Z AUTO 26013KT 10SM FEW070 BKN080 BKN090 04/M02 A2951 RMK AO2
K20U 180755Z AUTO 26012KT 10SM BKN070 OVC080 05/M02 A2951 RMK AO2
K20U 180735Z AUTO 26014KT 10SM BKN065 OVC075 06/M02 A2951 RMK AO2
K20U 180715Z AUTO 26013KT 10SM FEW043 BKN070 OVC075 05/M02 A2951 RMK AO2
K20U 180655Z AUTO 25015G20KT 10SM BKN075 OVC095 05/M02 A2952 RMK AO2
K20U 180635Z AUTO 25014KT 10SM FEW075 SCT090 SCT110 05/M03 A2952 RMK AO2
K20U 180615Z AUTO 25015KT 10SM CLR 05/M03 A2953 RMK AO2
K20U 180555Z AUTO 25014G20KT 10SM CLR 05/M03 A2953 RMK AO2
K20U 180535Z AUTO 26015G24KT 10SM CLR 06/M03 A2953 RMK AO2
K20U 180515Z AUTO 25016KT 10SM CLR 06/M03 A2953 RMK AO2
K20U 180455Z AUTO 24012G18KT 10SM CLR 05/M02 A2953 RMK AO2
K20U 180435Z AUTO 24012KT 10SM CLR 05/M03 A2954 RMK AO2
K20U 180415Z AUTO 24012KT 10SM CLR 04/M02 A2954 RMK AO2
K20U 180355Z AUTO 24011KT 10SM CLR 03/M02 A2955 RMK AO2
K20U 180335Z AUTO 24011KT 10SM CLR 03/M02 A2956 RMK AO2
K20U 180315Z AUTO 25012KT 10SM CLR 03/M02 A2957 RMK AO2
K20U 180255Z AUTO 24013G19KT 10SM CLR 04/M02 A2958 RMK AO2
K20U 180235Z AUTO 25010KT 10SM CLR 04/M02 A2959 RMK AO2
K20U 180215Z AUTO 24009KT 10SM CLR 04/M02 A2959 RMK AO2
K20U 180155Z AUTO 24013KT 10SM CLR 04/M02 A2960 RMK AO2
K20U 180135Z AUTO 24014KT 10SM CLR 05/M02 A2960 RMK AO2
K20U 180115Z AUTO 24013KT 10SM CLR 05/M02 A2960 RMK AO2
K20U 180055Z AUTO 25012KT 10SM CLR 04/M02 A2961 RMK AO2
K20U 180035Z AUTO 25009KT 10SM CLR 04/M01 A2961 RMK AO2
K20U 180015Z AUTO 24008KT 10SM CLR 04/M01 A2962 RMK AO2
K20U 172355Z AUTO 23006KT 10SM CLR 04/M01 A2963 RMK AO2
K20U 172335Z AUTO 24007KT 10SM CLR 04/M01 A2963 RMK AO2
K20U 172315Z AUTO 24007KT 10SM CLR 05/M01 A2964 RMK AO2
K20U 172255Z AUTO 24008KT 10SM CLR 06/M01 A2965 RMK AO2
K20U 172235Z AUTO 25009KT 10SM CLR 07/M01 A2965 RMK AO2
K20U 172215Z AUTO 25010KT 10SM CLR 07/M01 A2965 RMK AO2
K20U 172155Z AUTO 25010KT 10SM CLR 07/M01 A2966 RMK AO2
K20U 172135Z AUTO 25010KT 9SM CLR 07/M02 A2966 RMK AO2
K20U 172115Z AUTO 24010KT 10SM CLR 07/M01 A2966 RMK AO2
K20U 172055Z AUTO 23011KT 10SM CLR 07/M02 A2966 RMK AO2
K20U 172035Z AUTO 25013KT 10SM CLR 07/M02 A2967 RMK AO2
K20U 172015Z AUTO 25012KT 9SM CLR 08/M01 A2967 RMK AO2
K20U 171955Z AUTO 25012KT 9SM CLR 08/M02 A2968 RMK AO2
K20U 171935Z AUTO 25012KT 9SM CLR 07/M02 A2969 RMK AO2
K20U 171915Z AUTO 26009KT 10SM CLR 07/M02 A2972 RMK AO2
K20U 171855Z AUTO 26010KT 10SM CLR 07/M02 A2972 RMK AO2
K20U 171835Z AUTO 27008KT 10SM CLR 07/M02 A2972 RMK AO2
K20U 171815Z AUTO 24007KT 10SM CLR 06/M02 A2974 RMK AO2
K20U 171755Z AUTO 27011KT 10SM CLR 06/M02 A2973 RMK AO2
K20U 171735Z AUTO 28009KT 10SM CLR 05/M02 A2973 RMK AO2
K20U 171715Z AUTO 26008KT 10SM CLR 05/M02 A2974 RMK AO2
K20U 171655Z AUTO 26005KT 10SM CLR 04/M02 A2974 RMK AO2
K20U 171635Z AUTO 24009KT 10SM CLR 03/M02 A2974 RMK AO2
K20U 171615Z AUTO 24005G12KT 10SM CLR 02/M02 A2974 RMK AO2
K20U 171555Z AUTO 24007KT 10SM CLR 01/M02 A2974 RMK AO2
K20U 171535Z AUTO 25007KT 10SM CLR 00/M03 A2973 RMK AO2
K20U 171515Z AUTO 23007KT 10SM CLR M01/M03 A2973 RMK AO2
K20U 171455Z AUTO 23007KT 10SM CLR M01/M03 A2973 RMK AO2
K20U 171435Z AUTO 25009KT 10SM CLR M01/M03 A2972 RMK AO2
K20U 171415Z AUTO 26010KT 10SM CLR M01/M03 A2972 RMK AO2
K20U 171355Z AUTO 26011KT 10SM CLR M01/M03 A2972 RMK AO2
K20U 171335Z AUTO 26011KT 10SM CLR M00/M03 A2972 RMK AO2
K20U 171315Z AUTO 25011KT 10SM CLR M00/M03 A2972 RMK AO2
K20U 171255Z AUTO 25012KT 10SM CLR M00/M03 A2972 RMK AO2
K20U 171235Z AUTO 26012KT 10SM CLR M00/M03 A2972 RMK AO2
K20U 171215Z AUTO 26011KT 10SM CLR M00/M03 A2972 RMK AO2
K20U 171155Z AUTO 25011KT 10SM CLR 00/M03 A2972 RMK AO2
K20U 171135Z AUTO 25012KT 10SM CLR 01/M03 A2971 RMK AO2
K20U 171115Z AUTO 26012G17KT 10SM CLR 01/M03 A2972 RMK AO2
K20U 171055Z AUTO 25012KT 10SM CLR 01/M03 A2972 RMK AO2
K20U 171035Z AUTO 23012KT 10SM CLR 01/M03 A2972 RMK AO2
K20U 171015Z AUTO 23012KT 10SM BKN070 01/M03 A2972 RMK AO2
K20U 170955Z AUTO 23013KT 10SM OVC070 02/M03 A2972 RMK AO2
K20U 170935Z AUTO 21010KT 10SM OVC075 02/M02 A2973 RMK AO2
K20U 170915Z AUTO 18008KT 10SM SCT060 OVC075 01/M02 A2974 RMK AO2
K20U 170855Z AUTO 16006KT 10SM OVC060 01/M02 A2975 RMK AO2
K20U 170835Z AUTO 19006KT 10SM OVC060 01/M02 A2975 RMK AO2
K20U 170815Z AUTO 21007KT 10SM OVC065 02/M02 A2976 RMK AO2
K20U 170755Z AUTO 21009KT 10SM OVC060 01/M02 A2977 RMK AO2
K20U 170735Z AUTO 21009KT 10SM OVC065 01/M02 A2978 RMK AO2
K20U 170715Z AUTO 22009KT 10SM OVC070 01/M02 A2980 RMK AO2
K20U 170655Z AUTO 21010KT 10SM FEW050 OVC075 01/M02 A2981 RMK AO2
K20U 170635Z AUTO 21011KT 10SM BKN055 BKN070 OVC090 00/M02 A2982 RMK AO2
K20U 170615Z AUTO 22011KT 10SM SCT060 OVC070 M00/M03 A2984 RMK AO2
K20U 170555Z AUTO 21009KT 10SM BKN075 BKN085 OVC110 M01/M03 A2984 RMK AO2
K20U 170535Z AUTO 21009KT 10SM FEW085 BKN110 M01/M04 A2985 RMK AO2
K20U 170515Z AUTO 21007KT 10SM CLR M02/M04 A2987 RMK AO2
K20U 170455Z AUTO 22008KT 10SM CLR M01/M03 A2988 RMK AO2
K20U 170435Z AUTO 23008KT 10SM CLR M01/M03 A2989 RMK AO2
K20U 170415Z AUTO 24008KT 10SM CLR M02/M03 A2990 RMK AO2
K20U 170355Z AUTO 23008KT 10SM CLR M02/M03 A2990 RMK AO2
K20U 170335Z AUTO 22008KT 10SM CLR M02/M03 A2991 RMK AO2
K20U 170315Z AUTO 23010KT 10SM CLR M02/M03 A2992 RMK AO2
K20U 170255Z AUTO 23008KT 10SM CLR M02/M03 A2993 RMK AO2
K20U 170235Z AUTO 23004KT 10SM CLR M02/M03 A2995 RMK AO2
K20U 170215Z AUTO 24006KT 10SM CLR M02/M03 A2996 RMK AO2
K20U 170155Z AUTO 24007KT 10SM CLR M02/M03 A2996 RMK AO2
K20U 170135Z AUTO 25007KT 10SM CLR M02/M03 A2997 RMK AO2
K20U 170115Z AUTO 25007KT 10SM CLR M02/M03 A2997 RMK AO2
K20U 170055Z AUTO 26007KT 10SM CLR M02/M03 A2997 RMK AO2
K20U 170035Z AUTO 26006KT 10SM CLR M01/M03 A2997 RMK AO2
K20U 170015Z AUTO 27004KT 10SM CLR M00/M02 A2998 RMK AO2
K20U 162355Z AUTO 26006KT 10SM CLR M01/M03 A2998 RMK AO2
K20U 162335Z AUTO 28008KT 10SM CLR 01/M02 A2999 RMK AO2
K20U 162315Z AUTO 30008KT 10SM CLR 02/M02 A3000 RMK AO2
K20U 162255Z AUTO 30008KT 10SM CLR 03/M03 A3000 RMK AO2
K20U 162235Z AUTO 30011KT 10SM CLR 03/M03 A3001 RMK AO2